Time;durP1;ratioP1;P1;durP2;ratioP2;P2;SDS_P1;SDS_P2;PMS_P1;PMS_P2;Temp;Humidity;BMP_temperature;BMP_pressure;BME280_temperature;BME280_humidity;BME280_pressure;Samples;Min_cycle;Max_cycle;Signal;HPM_P1;HPM_P2
2022/08/01 00:02:15;;;;;;;5.95;1.30;;;;;;;16.60;100.00;98626.13;5081932;28;20029;-91
2022/08/01 00:04:41;;;;;;;10.15;1.55;;;;;;;16.68;100.00;98621.44;5086721;28;20056;-93
2022/08/01 00:07:07;;;;;;;12.70;1.92;;;;;;;16.91;100.00;98629.44;5077277;28;20032;-92
2022/08/01 00:09:32;;;;;;;9.88;1.70;;;;;;;17.03;100.00;98624.56;5072891;28;20044;-96
2022/08/01 00:11:58;;;;;;;10.00;1.90;;;;;;;16.89;100.00;98625.09;5072067;28;20028;-93
2022/08/01 00:14:24;;;;;;;10.50;1.80;;;;;;;17.31;100.00;98630.59;5073583;28;20035;-94
2022/08/01 00:16:52;;;;;;;9.38;2.05;;;;;;;17.04;100.00;98631.56;5069246;28;20035;-93
2022/08/01 00:19:19;;;;;;;10.77;2.13;;;;;;;17.51;100.00;98637.72;5072979;28;20028;-94
2022/08/01 00:21:45;;;;;;;7.88;1.52;;;;;;;17.45;100.00;98630.03;5073238;28;20020;-94
2022/08/01 00:24:10;;;;;;;7.63;2.03;;;;;;;17.41;100.00;98634.56;5067625;28;20025;-96
2022/08/01 00:26:36;;;;;;;9.23;2.10;;;;;;;17.34;100.00;98636.59;5069435;28;20377;-93
2022/08/01 00:29:02;;;;;;;6.60;1.63;;;;;;;17.03;100.00;98637.75;5073408;28;20028;-93
2022/08/01 00:31:27;;;;;;;10.35;1.88;;;;;;;16.98;100.00;98630.94;5072509;28;20029;-96
2022/08/01 00:33:53;;;;;;;9.43;1.75;;;;;;;16.81;100.00;98626.25;5066633;28;20040;-93
2022/08/01 00:36:18;;;;;;;10.05;1.70;;;;;;;17.42;100.00;98623.13;5071833;28;20061;-93
2022/08/01 00:38:44;;;;;;;6.68;1.70;;;;;;;16.75;100.00;98626.50;5075448;28;20482;-93
2022/08/01 00:41:10;;;;;;;11.88;2.13;;;;;;;16.59;100.00;98631.44;5072838;28;20043;-93
2022/08/01 00:43:36;;;;;;;8.50;1.70;;;;;;;16.33;100.00;98636.72;5070656;28;20035;-94
2022/08/01 00:46:01;;;;;;;10.85;2.10;;;;;;;16.76;100.00;98636.97;5071299;28;20411;-96
2022/08/01 00:48:27;;;;;;;12.18;2.15;;;;;;;17.29;100.00;98638.56;5088985;28;20030;-93
2022/08/01 00:50:53;;;;;;;9.90;2.25;;;;;;;17.15;100.00;98628.53;5069668;28;20020;-94
2022/08/01 00:53:18;;;;;;;8.48;1.95;;;;;;;17.26;100.00;98630.78;5075973;28;20028;-93
2022/08/01 00:55:44;;;;;;;8.15;1.67;;;;;;;16.62;100.00;98636.59;5071402;28;20057;-94
2022/08/01 00:58:10;;;;;;;7.40;1.67;;;;;;;17.04;100.00;98634.22;5064453;28;20090;-93
2022/08/01 01:00:36;;;;;;;8.32;1.95;;;;;;;17.35;100.00;98629.56;5079879;28;20028;-93
2022/08/01 01:03:02;;;;;;;9.30;2.08;;;;;;;17.32;100.00;98627.88;5068805;28;20318;-95
2022/08/01 01:05:28;;;;;;;9.45;2.00;;;;;;;17.13;100.00;98634.78;5075393;28;20023;-93
2022/08/01 01:08:01;;;;;;;11.10;2.13;;;;;;;17.42;100.00;98636.28;5069365;28;20043;-93
2022/08/01 01:10:27;;;;;;;;;;;;;;;17.00;100.00;98637.03;5069885;28;20032;-94
2022/08/01 01:13:06;;;;;;;9.18;2.00;;;;;;;16.69;100.00;98640.75;5069725;28;19920;-96
2022/08/01 01:15:42;;;;;;;8.63;2.03;;;;;;;17.00;100.00;98634.38;5072485;28;20028;-95
2022/08/01 01:18:32;;;;;;;7.95;1.60;;;;;;;17.08;100.00;98628.81;5074128;28;21263;-93
2022/08/01 01:21:16;;;;;;;9.65;1.98;;;;;;;16.88;100.00;98631.28;5070671;28;20024;-96
2022/08/01 01:24:21;;;;;;;12.75;2.15;;;;;;;17.48;100.00;98633.44;5068938;28;20055;-96
2022/08/01 01:27:01;;;;;;;9.50;1.58;;;;;;;17.13;100.00;98634.78;5071041;28;20127;-94
2022/08/01 01:29:35;;;;;;;7.43;2.15;;;;;;;17.40;100.00;98644.25;5066580;28;20037;-93
2022/08/01 01:32:09;;;;;;;9.23;1.73;;;;;;;16.75;100.00;98637.88;5062184;28;20459;-93
2022/08/01 01:34:42;;;;;;;8.88;1.88;;;;;;;16.72;100.00;98644.13;5061698;28;20067;-93
2022/08/01 01:37:14;;;;;;;8.35;2.00;;;;;;;17.05;100.00;98633.31;5063963;28;20043;-93
2022/08/01 01:39:42;;;;;;;7.55;1.92;;;;;;;17.43;100.00;98635.38;5065944;28;20037;-92
2022/08/01 01:42:08;;;;;;;5.35;1.55;;;;;;;17.13;100.00;98633.03;5062947;28;20060;-94
2022/08/01 01:44:35;;;;;;;7.43;1.70;;;;;;;17.03;100.00;98629.00;5066678;28;20101;-95
2022/08/01 01:47:02;;;;;;;8.32;1.70;;;;;;;16.27;100.00;98633.44;5066224;28;20147;-96
2022/08/01 01:49:29;;;;;;;8.98;1.80;;;;;;;16.43;100.00;98637.25;5065776;28;20032;-94
2022/08/01 01:51:58;;;;;;;9.02;2.00;;;;;;;16.27;100.00;98639.56;5070365;28;20558;-93
2022/08/01 01:54:28;;;;;;;9.55;2.05;;;;;;;16.15;100.00;98632.09;5069254;28;20190;-93
2022/08/01 01:56:58;;;;;;;9.10;1.83;;;;;;;16.36;100.00;98633.97;5069272;28;20036;-96
2022/08/01 01:59:28;;;;;;;7.38;1.80;;;;;;;16.59;100.00;98628.81;5059411;28;20025;-96
2022/08/01 02:01:56;;;;;;;8.63;2.05;;;;;;;16.67;100.00;98632.03;5061568;28;20040;-94
2022/08/01 02:04:25;;;;;;;7.28;1.88;;;;;;;16.49;100.00;98623.00;5065798;28;20244;-93
2022/08/01 02:06:52;;;;;;;8.18;1.65;;;;;;;16.93;100.00;98628.47;5063722;28;20052;-94
2022/08/01 02:09:21;;;;;;;11.80;1.90;;;;;;;16.62;100.00;98631.31;5066214;28;20024;-93
2022/08/01 02:11:48;;;;;;;9.05;1.75;;;;;;;16.78;100.00;98616.69;5069835;28;20023;-95
2022/08/01 02:14:16;;;;;;;10.25;1.98;;;;;;;16.28;100.00;98622.00;5064274;28;20025;-94
2022/08/01 02:16:45;;;;;;;7.38;1.63;;;;;;;15.72;100.00;98626.44;5064269;28;20475;-94
2022/08/01 02:19:11;;;;;;;8.13;1.77;;;;;;;14.05;100.00;98635.53;5062171;28;20032;-94
2022/08/01 02:21:53;;;;;;;7.28;1.73;;;;;;;16.08;100.00;98630.59;5067412;28;20038;-95
2022/08/01 02:24:48;;;;;;;11.85;2.20;;;;;;;16.21;100.00;98622.22;5067125;28;20052;-95
2022/08/01 02:27:28;;;;;;;6.30;1.60;;;;;;;16.44;100.00;98619.72;5069185;28;20032;-93
2022/08/01 02:30:01;;;;;;;7.43;2.00;;;;;;;16.63;100.00;98614.63;5070868;28;20036;-95
2022/08/01 02:32:47;;;;;;;9.95;1.70;;;;;;;15.79;100.00;98620.09;5068300;28;20514;-95
2022/08/01 02:35:23;;;;;;;8.00;2.00;;;;;;;15.88;100.00;98624.22;5064327;28;20088;-92
2022/08/01 02:37:49;;;;;;;10.38;2.05;;;;;;;16.29;100.00;98613.19;5059767;28;20033;-92
2022/08/01 02:40:17;;;;;;;8.10;1.98;;;;;;;15.84;100.00;98610.28;5069618;28;20052;-92
2022/08/01 02:42:50;;;;;;;8.95;1.67;;;;;;;16.19;100.00;98604.75;5068275;28;20483;-91
2022/08/01 02:45:25;;;;;;;10.52;1.80;;;;;;;16.03;100.00;98602.66;5061790;28;20032;-92
2022/08/01 02:48:01;;;;;;;9.02;1.58;;;;;;;15.95;100.00;98602.06;5065482;28;20021;-96
2022/08/01 02:50:29;;;;;;;8.93;1.67;;;;;;;15.39;100.00;98612.59;5059683;28;20112;-93
2022/08/01 02:52:57;;;;;;;8.57;2.15;;;;;;;15.43;100.00;98608.97;5062936;28;20483;-93
2022/08/01 02:55:23;;;;;;;8.07;1.65;;;;;;;15.60;100.00;98614.56;5082708;28;20047;-95
2022/08/01 02:57:52;;;;;;;9.50;1.67;;;;;;;15.18;100.00;98617.59;5086407;28;20034;-92
2022/08/01 03:00:17;;;;;;;10.02;2.00;;;;;;;15.26;100.00;98620.00;5066596;28;20044;-92
2022/08/01 03:02:46;;;;;;;10.88;1.90;;;;;;;15.10;100.00;98623.09;5067529;28;20035;-92
2022/08/01 03:05:12;;;;;;;11.48;1.75;;;;;;;15.27;100.00;98624.34;5071003;28;20475;-93
2022/08/01 03:07:40;;;;;;;12.90;1.88;;;;;;;14.97;100.00;98632.22;5089399;28;20024;-92
2022/08/01 03:10:06;;;;;;;8.10;1.85;;;;;;;15.50;100.00;98631.50;5069554;28;20113;-94
2022/08/01 03:12:35;;;;;;;10.00;2.10;;;;;;;15.15;100.00;98629.03;5085399;28;20490;-94
2022/08/01 03:15:04;;;;;;;11.35;2.10;;;;;;;14.87;100.00;98634.25;5090861;28;20110;-96
2022/08/01 03:17:31;;;;;;;8.77;1.75;;;;;;;14.91;100.00;98633.25;5063061;28;20511;-92
2022/08/01 03:20:01;;;;;;;8.90;1.83;;;;;;;15.01;100.00;98624.19;5088145;28;20458;-95
2022/08/01 03:22:29;;;;;;;10.30;2.10;;;;;;;15.17;100.00;98614.09;5085202;28;20028;-93
2022/08/01 03:24:57;;;;;;;10.40;1.70;;;;;;;15.15;100.00;98625.56;5083291;28;20153;-93
2022/08/01 03:27:25;;;;;;;10.20;2.13;;;;;;;15.12;100.00;98625.66;5067298;28;20039;-94
2022/08/01 03:29:51;;;;;;;11.00;2.17;;;;;;;15.69;100.00;98622.13;5070947;28;20033;-96
2022/08/01 03:32:19;;;;;;;11.13;2.22;;;;;;;15.21;100.00;98633.25;5069110;28;20046;-93
2022/08/01 03:34:46;;;;;;;9.00;2.25;;;;;;;15.01;100.00;98628.59;5066455;28;20028;-91
2022/08/01 03:37:27;;;;;;;8.85;2.05;;;;;;;14.21;100.00;98629.00;5068335;28;20031;-91
2022/08/01 03:40:22;;;;;;;7.25;1.80;;;;;;;14.24;100.00;98639.41;5077653;28;20028;-92
2022/08/01 03:42:52;;;;;;;8.13;2.08;;;;;;;14.21;100.00;98634.25;5047545;28;20048;-91
2022/08/01 03:45:34;;;;;;;9.50;2.22;;;;;;;13.98;100.00;98637.44;5067030;28;20059;-95
2022/08/01 03:48:03;;;;;;;9.57;2.05;;;;;;;13.90;100.00;98645.47;5071516;28;21745;-92
2022/08/01 03:50:33;;;;;;;8.40;2.08;;;;;;;14.52;100.00;98643.94;5082134;28;20085;-92
2022/08/01 03:53:01;;;;;;;7.65;2.00;;;;;;;14.43;100.00;98628.41;5062548;28;20024;-92
2022/08/01 03:55:28;;;;;;;10.10;2.33;;;;;;;14.70;100.00;98625.97;5083408;28;20032;-94
2022/08/01 03:57:55;;;;;;;9.05;2.03;;;;;;;14.74;100.00;98624.97;5086963;28;20037;-92
2022/08/01 04:00:22;;;;;;;8.38;2.10;;;;;;;14.97;100.00;98605.94;5083081;28;20064;-92
2022/08/01 04:02:50;;;;;;;10.27;2.40;;;;;;;14.76;100.00;98621.41;5089914;28;20032;-91
2022/08/01 04:05:16;;;;;;;9.05;1.77;;;;;;;15.17;100.00;98624.63;5083015;28;20050;-91
2022/08/01 04:07:46;;;;;;;12.68;2.30;;;;;;;15.12;100.00;98615.16;5070484;28;20758;-90
2022/08/01 04:10:12;;;;;;;13.18;2.42;;;;;;;15.24;100.00;98621.78;5089025;28;20035;-91
2022/08/01 04:12:38;;;;;;;10.68;2.17;;;;;;;14.82;100.00;98617.75;5068675;28;20044;-92
2022/08/01 04:15:06;;;;;;;11.73;2.22;;;;;;;15.08;100.00;98610.91;5066193;28;20036;-92
2022/08/01 04:17:32;;;;;;;8.30;1.90;;;;;;;14.98;100.00;98602.44;5089106;28;20123;-94
2022/08/01 04:19:57;;;;;;;9.15;2.35;;;;;;;15.14;100.00;98602.81;5070475;28;20084;-95
2022/08/01 04:22:23;;;;;;;10.70;2.47;;;;;;;15.42;100.00;98597.59;5066220;28;20519;-95
2022/08/01 04:24:53;;;;;;;11.57;2.22;;;;;;;15.45;100.00;98600.13;5062522;28;20495;-91
2022/08/01 04:27:28;;;;;;;9.25;2.30;;;;;;;14.81;100.00;98603.78;5068751;28;20049;-91
2022/08/01 04:29:58;;;;;;;11.07;2.22;;;;;;;14.61;100.00;98606.94;5091022;28;20273;-92
2022/08/01 04:32:27;;;;;;;10.98;2.70;;;;;;;14.45;100.00;98621.38;5065777;28;20046;-92
2022/08/01 04:34:55;;;;;;;7.47;2.20;;;;;;;14.04;100.00;98621.53;5069861;28;20098;-91
2022/08/01 04:37:23;;;;;;;8.32;2.00;;;;;;;14.05;100.00;98625.91;5070009;28;20487;-92
2022/08/01 04:39:51;;;;;;;10.40;2.28;;;;;;;14.97;100.00;98616.47;5089123;28;20058;-95
2022/08/01 04:42:18;;;;;;;11.48;2.25;;;;;;;14.64;100.00;98620.00;5070244;28;20032;-92
2022/08/01 04:44:44;;;;;;;8.60;2.25;;;;;;;14.99;100.00;98614.66;5093115;28;20149;-93
2022/08/01 04:47:11;;;;;;;12.15;2.20;;;;;;;14.72;100.00;98614.53;5067518;28;20032;-94
2022/08/01 04:49:37;;;;;;;15.77;2.72;;;;;;;14.75;100.00;98624.97;5065793;28;20395;-92
2022/08/01 04:52:05;;;;;;;10.15;2.20;;;;;;;15.01;100.00;98621.56;5066128;28;20031;-93
2022/08/01 04:54:33;;;;;;;12.43;2.17;;;;;;;14.64;100.00;98620.00;5088369;28;20824;-92
2022/08/01 04:57:00;;;;;;;11.57;2.28;;;;;;;14.74;100.00;98615.38;5087844;28;20119;-93
2022/08/01 04:59:39;;;;;;;12.25;2.63;;;;;;;14.75;100.00;98618.84;5072242;28;20031;-91
2022/08/01 05:02:09;;;;;;;12.70;2.20;;;;;;;15.18;100.00;98625.47;5068351;28;20021;-93
2022/08/01 05:04:36;;;;;;;7.50;2.05;;;;;;;15.31;100.00;98621.56;5070309;28;20039;-92
2022/08/01 05:07:02;;;;;;;8.82;2.10;;;;;;;14.96;100.00;98622.59;5072602;28;20111;-93
2022/08/01 05:09:28;;;;;;;9.85;2.22;;;;;;;15.05;100.00;98624.97;5097325;28;20023;-92
2022/08/01 05:11:54;;;;;;;8.77;2.20;;;;;;;15.34;100.00;98625.88;5070177;28;20055;-92
2022/08/01 05:14:23;;;;;;;12.00;2.40;;;;;;;15.84;100.00;98622.59;5085749;28;20038;-91
2022/08/01 05:16:49;;;;;;;10.82;2.20;;;;;;;15.79;100.00;98614.84;5069627;28;20027;-92
2022/08/01 05:19:15;;;;;;;11.95;2.60;;;;;;;15.96;100.00;98611.63;5071102;28;20456;-91
2022/08/01 05:21:40;;;;;;;8.88;2.40;;;;;;;15.74;100.00;98611.47;5065677;28;20378;-91
2022/08/01 05:24:06;;;;;;;9.00;2.20;;;;;;;15.73;100.00;98617.63;5091313;28;20432;-91
2022/08/01 05:26:32;;;;;;;8.52;1.63;;;;;;;15.83;100.00;98619.09;5089909;28;20047;-92
2022/08/01 05:28:59;;;;;;;8.52;1.88;;;;;;;15.96;100.00;98611.63;5068462;28;20040;-91
2022/08/01 05:31:24;;;;;;;8.63;1.67;;;;;;;15.98;100.00;98620.34;5067029;28;20396;-93
2022/08/01 05:33:50;;;;;;;11.52;1.95;;;;;;;15.94;100.00;98615.25;5070228;28;20502;-92
2022/08/01 05:36:15;;;;;;;9.63;2.17;;;;;;;16.27;100.00;98610.63;5089024;28;20032;-92
2022/08/01 05:38:41;;;;;;;7.63;1.70;;;;;;;16.25;100.00;98608.94;5066015;28;20036;-91
2022/08/01 05:41:06;;;;;;;11.63;1.92;;;;;;;15.76;100.00;98617.53;5070272;28;20501;-91
2022/08/01 05:43:32;;;;;;;10.68;1.75;;;;;;;16.01;100.00;98624.66;5071854;28;20020;-92
2022/08/01 05:45:58;;;;;;;10.35;1.73;;;;;;;16.23;100.00;98611.63;5063306;28;20063;-93
2022/08/01 05:48:24;;;;;;;9.70;2.08;;;;;;;16.19;100.00;98602.97;5084168;28;20024;-94
2022/08/01 05:50:50;;;;;;;12.63;2.38;;;;;;;16.01;100.00;98616.78;5069414;28;20527;-90
2022/08/01 05:53:16;;;;;;;10.13;2.47;;;;;;;15.62;100.00;98620.59;5068350;28;20035;-90
2022/08/01 05:55:42;;;;;;;9.05;1.92;;;;;;;16.13;100.00;98626.00;5087317;28;20052;-90
2022/08/01 05:58:08;;;;;;;9.07;1.70;;;;;;;16.02;100.00;98621.13;5065106;28;20398;-90
2022/08/01 06:00:34;;;;;;;11.38;2.00;;;;;;;16.01;100.00;98628.13;5071348;28;20106;-91
2022/08/01 06:02:59;;;;;;;8.70;1.92;;;;;;;15.94;100.00;98633.66;5067679;28;20063;-91
2022/08/01 06:05:25;;;;;;;10.60;1.90;;;;;;;16.10;100.00;98634.00;5084619;28;20111;-90
2022/08/01 06:07:50;;;;;;;16.02;2.40;;;;;;;15.67;100.00;98645.00;5069682;28;20398;-90
2022/08/01 06:10:16;;;;;;;8.48;1.90;;;;;;;15.98;100.00;98649.28;5091213;28;21788;-90
2022/08/01 06:12:42;;;;;;;11.05;1.58;;;;;;;15.99;100.00;98651.03;5063882;28;20043;-93
2022/08/01 06:15:08;;;;;;;16.75;2.08;;;;;;;15.55;100.00;98649.78;5069136;28;20027;-95
2022/08/01 06:17:34;;;;;;;10.88;1.88;;;;;;;15.55;100.00;98649.78;5089330;28;20036;-95
2022/08/01 06:20:03;;;;;;;8.82;1.83;;;;;;;15.50;100.00;98653.41;5074277;28;20052;-95
2022/08/01 06:22:29;;;;;;;8.45;1.60;;;;;;;15.48;100.00;98647.31;5070034;28;20491;-93
2022/08/01 06:24:54;;;;;;;7.18;1.65;;;;;;;15.62;100.00;98649.53;5072853;28;20016;-95
2022/08/01 06:27:20;;;;;;;10.13;2.03;;;;;;;15.78;100.00;98657.81;5072477;28;20047;-96
2022/08/01 06:29:46;;;;;;;8.82;1.80;;;;;;;16.02;100.00;98652.69;5068300;28;20028;-93
2022/08/01 06:32:13;;;;;;;11.20;2.35;;;;;;;16.16;100.00;98653.09;5076652;28;20042;-93
2022/08/01 06:34:38;;;;;;;8.25;1.83;;;;;;;16.38;100.00;98658.47;5071494;28;20043;-94
2022/08/01 06:37:04;;;;;;;8.85;2.13;;;;;;;16.48;100.00;98651.13;5096468;28;20455;-94
2022/08/01 06:39:29;;;;;;;12.00;1.90;;;;;;;16.76;100.00;98655.41;5089646;28;20031;-94
2022/08/01 06:41:55;;;;;;;8.30;1.88;;;;;;;16.29;100.00;98653.53;5072274;28;20919;-93
2022/08/01 06:44:20;;;;;;;12.68;2.20;;;;;;;16.88;100.00;98646.19;5067349;28;20028;-94
2022/08/01 06:46:46;;;;;;;12.90;1.80;;;;;;;16.46;100.00;98642.41;5072889;28;20026;-96
2022/08/01 06:49:11;;;;;;;9.00;1.80;;;;;;;16.46;100.00;98647.66;5067659;28;20192;-94
2022/08/01 06:51:37;;;;;;;8.98;2.08;;;;;;;16.85;100.00;98651.56;5092787;28;20047;-94
2022/08/01 06:54:02;;;;;;;11.40;1.83;;;;;;;16.70;100.00;98643.31;5090742;28;20054;-94
2022/08/01 06:56:28;;;;;;;11.05;2.35;;;;;;;16.53;100.00;98651.81;5071605;28;20049;-94
2022/08/01 06:59:00;;;;;;;8.00;1.70;;;;;;;16.76;100.00;98650.16;5072853;28;20108;-94
2022/08/01 07:01:27;;;;;;;9.23;1.70;;;;;;;16.80;100.00;98645.59;5068458;28;20862;-94
2022/08/01 07:03:52;;;;;;;8.52;1.77;;;;;;;16.69;100.00;98657.41;5065541;28;20027;-93
2022/08/01 07:06:18;;;;;;;12.40;2.05;;;;;;;17.11;100.00;98652.44;5088694;28;20032;-96
2022/08/01 07:08:43;;;;;;;7.35;1.90;;;;;;;17.13;100.00;98645.31;5070529;28;20047;-95
2022/08/01 07:11:09;;;;;;;12.07;2.40;;;;;;;16.86;100.00;98646.25;5088717;28;20423;-94
2022/08/01 07:13:34;;;;;;;10.13;2.10;;;;;;;17.35;100.00;98650.63;5086579;28;20047;-95
2022/08/01 07:16:00;;;;;;;8.45;1.70;;;;;;;16.88;100.00;98647.09;5073393;28;20028;-94
2022/08/01 07:18:25;;;;;;;7.88;1.70;;;;;;;17.49;100.00;98640.41;5066558;28;20028;-94
2022/08/01 07:20:51;;;;;;;7.45;1.77;;;;;;;17.35;100.00;98646.22;5085909;28;20395;-94
2022/08/01 07:23:17;;;;;;;9.32;1.70;;;;;;;17.63;100.00;98633.75;5075100;28;20160;-96
2022/08/01 07:25:43;;;;;;;7.32;1.95;;;;;;;17.68;100.00;98637.91;5073349;28;20059;-95
2022/08/01 07:28:09;;;;;;;8.63;1.58;;;;;;;17.85;100.00;98639.00;5072499;28;20034;-96
2022/08/01 07:30:35;;;;;;;9.38;1.60;;;;;;;18.28;100.00;98625.84;5073005;28;20039;-93
2022/08/01 07:33:03;;;;;;;7.43;1.27;;;;;;;17.91;100.00;98639.66;5070819;28;20020;-94
2022/08/01 07:35:29;;;;;;;9.70;1.60;;;;;;;17.64;100.00;98635.47;5072422;28;20028;-93
2022/08/01 07:37:55;;;;;;;8.52;1.58;;;;;;;17.94;100.00;98633.41;5073129;28;20032;-95
2022/08/01 07:40:21;;;;;;;7.43;1.67;;;;;;;18.08;100.00;98640.75;5078002;28;20051;-93
2022/08/01 07:42:47;;;;;;;7.32;1.38;;;;;;;17.97;100.00;98638.53;5071332;28;20024;-94
2022/08/01 07:45:14;;;;;;;8.65;1.70;;;;;;;18.23;100.00;98640.09;5073006;28;20025;-94
2022/08/01 07:47:39;;;;;;;6.30;1.30;;;;;;;17.79;100.00;98641.91;5066348;28;20040;-94
2022/08/01 07:50:06;;;;;;;9.82;1.60;;;;;;;18.13;100.00;98637.91;5067916;28;20077;-96
2022/08/01 07:52:32;;;;;;;6.15;1.33;;;;;;;18.06;100.00;98638.19;5068717;28;20495;-94
2022/08/01 07:54:58;;;;;;;9.50;1.50;;;;;;;17.97;100.00;98630.63;5075496;28;20056;-95
2022/08/01 07:57:24;;;;;;;7.90;1.20;;;;;;;18.47;100.00;98620.59;5069754;28;20476;-94
2022/08/01 07:59:50;;;;;;;9.50;1.50;;;;;;;18.19;100.00;98632.34;5086594;28;20039;-92
2022/08/01 08:02:16;;;;;;;9.63;1.35;;;;;;;18.46;100.00;98621.56;5071720;28;20044;-94
2022/08/01 08:04:42;;;;;;;8.82;1.70;;;;;;;18.55;100.00;98621.13;5075054;28;20653;-93
2022/08/01 08:07:07;;;;;;;5.45;1.30;;;;;;;18.39;100.00;98621.81;5089450;28;20161;-93
2022/08/01 08:09:33;;;;;;;8.00;1.30;;;;;;;18.42;100.00;98626.09;5089212;28;20028;-95
2022/08/01 08:11:59;;;;;;;5.47;1.33;;;;;;;18.33;100.00;98623.84;5084443;28;20468;-93
2022/08/01 08:14:24;;;;;;;6.88;1.23;;;;;;;18.42;100.00;98621.66;5071451;28;20123;-95
2022/08/01 08:16:51;;;;;;;8.15;1.27;;;;;;;18.40;100.00;98630.59;5091289;28;20113;-93
2022/08/01 08:19:17;;;;;;;6.82;1.40;;;;;;;18.50;100.00;98620.50;5071644;28;20020;-94
2022/08/01 08:21:43;;;;;;;7.40;1.52;;;;;;;18.55;100.00;98623.78;5092613;28;20020;-94
2022/08/01 08:24:21;;;;;;;6.55;1.45;;;;;;;19.03;100.00;98613.75;5071429;28;20107;-94
2022/08/01 08:26:54;;;;;;;11.10;1.60;;;;;;;19.55;100.00;98610.44;5089872;28;20079;-93
2022/08/01 08:29:21;;;;;;;8.02;1.33;;;;;;;19.47;100.00;98612.59;5087471;28;20020;-93
2022/08/01 08:31:48;;;;;;;5.80;1.58;;;;;;;19.16;100.00;98621.97;5066541;28;20084;-93
2022/08/01 08:34:14;;;;;;;8.82;1.25;;;;;;;19.26;100.00;98617.97;5085635;28;20020;-93
2022/08/01 08:36:40;;;;;;;6.00;1.33;;;;;;;19.53;100.00;98615.81;5091036;28;20026;-94
2022/08/01 08:39:09;;;;;;;5.60;1.50;;;;;;;19.22;100.00;98611.09;5064578;28;20043;-94
2022/08/01 08:41:35;;;;;;;7.68;1.40;;;;;;;18.98;100.00;98616.59;5067514;28;20031;-93
2022/08/01 08:44:02;;;;;;;8.38;1.50;;;;;;;18.93;100.00;98613.34;5072865;28;20020;-92
2022/08/01 08:46:28;;;;;;;5.55;1.40;;;;;;;19.39;100.00;98611.19;5069232;28;20043;-92
2022/08/01 08:48:55;;;;;;;7.93;1.27;;;;;;;19.51;100.00;98616.81;5061871;28;20038;-93
2022/08/01 08:51:25;;;;;;;7.53;1.50;;;;;;;19.48;100.00;98616.97;5064571;28;20035;-93
2022/08/01 08:53:56;;;;;;;7.53;1.30;;;;;;;19.71;100.00;98615.88;5063998;28;20409;-93
2022/08/01 08:56:23;;;;;;;9.05;1.63;;;;;;;19.84;100.00;98614.34;5062478;28;20028;-93
2022/08/01 08:58:50;;;;;;;4.90;1.10;;;;;;;19.76;100.00;98617.34;5083314;28;20040;-94
2022/08/01 09:01:17;;;;;;;8.45;1.45;;;;;;;19.82;100.00;98620.63;5057213;28;21179;-92
2022/08/01 09:03:43;;;;;;;5.20;1.23;;;;;;;20.07;100.00;98615.84;5081804;28;20039;-93
2022/08/01 09:06:10;;;;;;;5.80;1.20;;;;;;;19.44;100.00;98618.88;5087228;28;20051;-92
2022/08/01 09:08:35;;;;;;;6.38;1.10;;;;;;;19.91;100.00;98614.91;5062198;28;20069;-92
2022/08/01 09:11:01;;;;;;;9.90;1.40;;;;;;;20.01;100.00;98628.53;5090373;28;20055;-93
2022/08/01 09:13:27;;;;;;;7.03;1.63;;;;;;;19.89;100.00;98624.72;5068226;28;20288;-93
2022/08/01 09:15:54;;;;;;;5.70;1.23;;;;;;;19.86;100.00;98614.25;5079919;28;20387;-94
2022/08/01 09:18:31;;;;;;;5.95;1.40;;;;;;;19.82;100.00;98620.63;5079397;28;20043;-94
2022/08/01 09:21:06;;;;;;;5.80;1.20;;;;;;;19.87;100.00;98610.69;5074777;28;20027;-94
2022/08/01 09:23:49;;;;;;;6.97;1.30;;;;;;;20.29;100.00;98609.44;5077806;28;20050;-94
2022/08/01 09:26:18;;;;;;;13.93;1.40;;;;;;;20.40;100.00;98598.31;5059679;28;20047;-93
2022/08/01 09:28:47;;;;;;;5.70;1.20;;;;;;;20.17;100.00;98603.00;5059514;28;20039;-93
2022/08/01 09:31:18;;;;;;;5.85;1.45;;;;;;;20.26;100.00;98610.50;5067820;28;20085;-94
2022/08/01 09:33:54;;;;;;;6.78;1.40;;;;;;;20.16;100.00;98608.38;5070950;28;20472;-94
2022/08/01 09:36:25;;;;;;;5.85;1.27;;;;;;;20.33;100.00;98613.66;5070497;28;20207;-92
2022/08/01 09:38:54;;;;;;;6.85;1.40;;;;;;;20.41;100.00;98605.34;5081501;28;20035;-92
2022/08/01 09:41:32;;;;;;;6.28;1.48;;;;;;;20.46;100.00;98598.00;5090493;28;20027;-92
2022/08/01 09:43:58;;;;;;;5.70;1.23;;;;;;;20.45;100.00;98597.13;5066258;28;20035;-93
2022/08/01 09:46:24;;;;;;;7.13;1.67;;;;;;;20.38;100.00;98603.69;5058246;28;20020;-92
2022/08/01 09:49:01;;;;;;;7.70;1.90;;;;;;;20.45;100.00;98598.94;5067208;28;20125;-92
2022/08/01 09:51:35;;;;;;;8.32;1.95;;;;;;;20.08;100.00;98609.63;5065388;28;20031;-95
2022/08/01 09:54:06;;;;;;;6.65;1.75;;;;;;;20.80;100.00;98599.75;5068063;28;20135;-93
2022/08/01 09:56:45;;;;;;;7.50;1.70;;;;;;;20.76;100.00;98592.03;5082660;28;20067;-92
2022/08/01 09:59:11;;;;;;;6.97;1.50;;;;;;;20.73;100.00;98594.88;5066955;28;20024;-95
2022/08/01 10:01:50;;;;;;;7.68;1.40;;;;;;;20.73;100.00;98601.00;5064627;28;20028;-92
2022/08/01 10:04:21;;;;;;;4.55;1.20;;;;;;;20.49;100.00;98605.78;5059526;28;20024;-93
2022/08/01 10:06:52;;;;;;;5.75;1.40;;;;;;;20.52;100.00;98602.13;5062549;28;20036;-92
2022/08/01 10:09:39;;;;;;;6.20;1.27;;;;;;;20.35;100.00;98603.84;5078741;28;20024;-93
2022/08/01 10:12:05;;;;;;;5.80;1.40;;;;;;;20.87;100.00;98616.19;5081146;28;20053;-95
2022/08/01 10:14:32;;;;;;;7.88;1.58;;;;;;;20.89;100.00;98616.09;5066993;28;20028;-95
2022/08/01 10:16:59;;;;;;;4.75;1.40;;;;;;;21.59;100.00;98622.00;5057537;28;20047;-94
2022/08/01 10:19:27;;;;;;;6.80;1.30;;;;;;;21.64;100.00;98624.38;5063536;28;20023;-94
2022/08/01 10:21:54;;;;;;;5.93;1.30;;;;;;;22.07;100.00;98621.91;5062256;28;20039;-93
2022/08/01 10:24:21;;;;;;;5.80;1.48;;;;;;;22.75;100.00;98614.41;5078353;28;20141;-92
2022/08/01 10:27:08;;;;;;;6.30;1.40;;;;;;;24.09;96.14;98603.22;5060793;28;20040;-95
2022/08/01 10:30:07;;;;;;;5.72;1.58;;;;;;;23.64;96.44;98615.94;5074500;28;20030;-92
2022/08/01 10:32:37;;;;;;;5.22;1.30;;;;;;;23.49;97.00;98613.31;5054724;28;20036;-93
2022/08/01 10:35:04;;;;;;;7.10;1.35;;;;;;;23.04;100.00;98614.41;5053650;28;20028;-92
2022/08/01 10:37:30;;;;;;;4.78;1.20;;;;;;;22.40;99.34;98618.25;5057921;28;20024;-93
2022/08/01 10:39:56;;;;;;;9.20;1.63;;;;;;;21.61;100.00;98622.78;5055403;28;20042;-92
2022/08/01 10:42:22;;;;;;;6.95;1.50;;;;;;;23.71;100.00;98611.91;5055117;28;20110;-91
2022/08/01 10:44:49;;;;;;;5.65;1.38;;;;;;;23.39;96.79;98606.03;5061903;28;20031;-94
2022/08/01 10:47:25;;;;;;;7.85;1.77;;;;;;;24.15;92.60;98596.63;5069553;28;20027;-93
2022/08/01 10:50:04;;;;;;;7.15;1.77;;;;;;;25.29;90.16;98607.38;5058511;28;20028;-93
2022/08/01 10:52:30;;;;;;;6.03;1.30;;;;;;;23.98;97.06;98608.38;5063768;28;20118;-93
2022/08/01 10:55:23;;;;;;;8.35;1.52;;;;;;;22.88;100.00;98601.19;5063840;28;20036;-91
2022/08/01 10:57:48;;;;;;;7.13;1.60;;;;;;;24.63;93.75;98601.38;5079471;28;20048;-92
2022/08/01 11:00:21;;;;;;;5.75;1.40;;;;;;;24.66;91.57;98604.69;5062232;28;21592;-92
2022/08/01 11:03:00;;;;;;;6.10;1.40;;;;;;;23.06;100.00;98602.72;5081591;28;20036;-91
2022/08/01 11:05:27;;;;;;;8.13;1.50;;;;;;;23.71;96.33;98597.75;5077390;28;20032;-93
2022/08/01 11:07:54;;;;;;;6.05;1.30;;;;;;;24.03;94.14;98600.97;5061525;28;20042;-91
2022/08/01 11:10:45;;;;;;;7.30;1.42;;;;;;;22.65;100.00;98598.16;5055612;28;20472;-91
2022/08/01 11:13:11;;;;;;;7.68;1.50;;;;;;;24.97;93.07;98586.53;5081026;28;20032;-89
2022/08/01 11:15:39;;;;;;;6.25;1.45;;;;;;;23.63;100.00;98585.81;5074890;28;20040;-91
2022/08/01 11:18:26;;;;;;;7.22;1.30;;;;;;;23.43;100.00;98592.41;5062267;28;20408;-93
2022/08/01 11:20:57;;;;;;;7.68;1.42;;;;;;;23.34;100.00;98585.03;5069101;28;20054;-95
2022/08/01 11:23:23;;;;;;;7.20;1.35;;;;;;;23.23;97.00;98582.19;5071574;28;20526;-96
2022/08/01 11:25:49;;;;;;;6.00;1.40;;;;;;;23.84;100.00;98579.97;5068087;28;21018;-96
2022/08/01 11:28:19;;;;;;;7.15;1.40;;;;;;;25.68;93.74;98576.09;5068156;28;20496;-94
2022/08/01 11:31:12;;;;;;;4.78;1.23;;;;;;;25.37;82.46;98580.16;5044159;28;20784;-95
2022/08/01 11:33:42;;;;;;;5.85;1.10;;;;;;;24.30;97.59;98568.06;5010406;28;20041;-95